Time;durP1;ratioP1;P1;durP2;ratioP2;P2;SDS_P1;SDS_P2;PMS_P1;PMS_P2;Temp;Humidity;BMP_temperature;BMP_pressure;BME280_temperature;BME280_humidity;BME280_pressure;Samples;Min_cycle;Max_cycle;Signal;HPM_P1;HPM_P2
2021/01/26 00:03:04;;;;;;;22.58;10.10;;;0.90;99.90;;;;;;10228078;28;20496;-69
2021/01/26 00:08:06;;;;;;;17.80;8.63;;;0.80;99.90;;;;;;10228062;28;20105;-70
2021/01/26 00:13:08;;;;;;;17.23;8.55;;;0.80;99.90;;;;;;10243728;28;20058;-69
2021/01/26 00:18:10;;;;;;;15.35;9.45;;;0.80;99.90;;;;;;10237757;28;20043;-69
2021/01/26 00:23:11;;;;;;;17.92;9.73;;;0.70;99.90;;;;;;10232833;28;20470;-70
2021/01/26 00:28:15;;;;;;;18.83;9.20;;;0.70;99.90;;;;;;10233259;28;20073;-69
2021/01/26 00:33:22;;;;;;;18.90;9.13;;;0.60;99.90;;;;;;10241693;28;20418;-70
2021/01/26 00:38:23;;;;;;;15.80;7.55;;;0.70;99.90;;;;;;10231863;28;20059;-69
2021/01/26 00:43:24;;;;;;;19.02;9.32;;;0.70;99.90;;;;;;10239799;28;20055;-70
2021/01/26 00:48:25;;;;;;;20.35;8.68;;;0.70;99.90;;;;;;10234598;28;20416;-69
2021/01/26 00:53:26;;;;;;;15.50;7.43;;;0.80;99.90;;;;;;10206617;28;20051;-70
2021/01/26 00:58:27;;;;;;;11.02;6.20;;;0.80;99.90;;;;;;10221822;28;20062;-70
2021/01/26 01:03:29;;;;;;;14.15;6.70;;;0.90;99.90;;;;;;10299440;23;20046;-89
2021/01/26 01:08:31;;;;;;;14.60;6.75;;;0.90;99.90;;;;;;10276300;23;20058;-87
2021/01/26 01:13:32;;;;;;;15.77;7.35;;;0.90;99.90;;;;;;10261453;23;20065;-68
2021/01/26 01:18:33;;;;;;;15.18;7.32;;;0.90;99.90;;;;;;10254767;28;20066;-68
2021/01/26 01:23:35;;;;;;;20.42;8.45;;;0.90;99.90;;;;;;10243309;28;20686;-68
2021/01/26 01:28:36;;;;;;;15.88;7.97;;;0.80;99.90;;;;;;10229335;28;20251;-68
2021/01/26 01:33:37;;;;;;;17.58;7.80;;;0.80;99.90;;;;;;10232081;28;20119;-68
2021/01/26 01:38:39;;;;;;;19.73;7.82;;;0.70;99.90;;;;;;10246627;28;20067;-68
2021/01/26 01:43:40;;;;;;;20.13;8.57;;;0.80;99.90;;;;;;10245961;28;20035;-68
2021/01/26 01:48:42;;;;;;;21.80;8.88;;;0.80;99.90;;;;;;10240125;28;20043;-68
2021/01/26 01:54:17;;;;;;;19.33;8.40;;;0.80;99.90;;;;;;10235252;28;20106;-68
2021/01/26 01:59:29;;;;;;;20.70;9.13;;;0.70;99.90;;;;;;10195658;28;20051;-68
2021/01/26 02:04:32;;;;;;;21.15;9.68;;;0.80;99.90;;;;;;10247264;28;20560;-68
2021/01/26 02:09:38;;;;;;;15.27;8.40;;;0.80;99.90;;;;;;10235071;28;20091;-68
2021/01/26 02:14:43;;;;;;;17.65;8.13;;;0.80;99.90;;;;;;10222030;28;20062;-68
2021/01/26 02:20:21;;;;;;;15.82;7.78;;;0.80;99.90;;;;;;10226465;28;20063;-68
2021/01/26 02:25:31;;;;;;;14.32;7.32;;;0.90;99.90;;;;;;10159600;28;20453;-68
2021/01/26 02:31:00;;;;;;;15.65;7.05;;;0.90;99.90;;;;;;10213512;28;20047;-68
2021/01/26 02:36:16;;;;;;;;;;;0.90;99.90;;;;;;10130670;28;20066;-68
2021/01/26 02:41:33;;;;;;;16.83;7.65;;;0.90;99.90;;;;;;10202645;28;19930;-68
2021/01/26 02:46:45;;;;;;;17.30;8.27;;;0.90;99.90;;;;;;10162910;28;20449;-67
2021/01/26 02:52:30;;;;;;;19.05;7.22;;;0.90;99.90;;;;;;10191401;28;20142;-68
2021/01/26 02:57:34;;;;;;;16.08;7.00;;;0.90;99.90;;;;;;10144040;28;20058;-68
2021/01/26 03:02:40;;;;;;;18.42;8.07;;;0.90;99.90;;;;;;10184109;28;20054;-68
2021/01/26 03:07:56;;;;;;;16.30;7.93;;;1.00;99.90;;;;;;10211333;28;20094;-68
2021/01/26 03:13:01;;;;;;;18.83;7.07;;;1.00;99.90;;;;;;10217073;28;20070;-68
2021/01/26 03:18:05;;;;;;;14.40;6.88;;;1.00;99.90;;;;;;10217893;28;20055;-68
2021/01/26 03:23:27;;;;;;;17.67;6.90;;;1.00;99.90;;;;;;10217255;28;20059;-68
2021/01/26 03:28:30;;;;;;;16.50;6.32;;;1.10;99.90;;;;;;10209264;28;20366;-68
2021/01/26 03:33:43;;;;;;;20.65;7.45;;;1.20;99.90;;;;;;10210233;28;20044;-68
2021/01/26 03:38:46;;;;;;;16.23;6.40;;;1.20;99.90;;;;;;10216588;28;20086;-68
2021/01/26 03:43:48;;;;;;;15.35;5.82;;;1.20;99.90;;;;;;10215764;28;20055;-68
2021/01/26 03:49:15;;;;;;;15.88;7.30;;;1.30;99.90;;;;;;10214704;28;20074;-68
2021/01/26 03:54:30;;;;;;;16.70;6.93;;;1.30;99.90;;;;;;10147456;28;20051;-68
2021/01/26 04:00:01;;;;;;;16.77;5.57;;;1.30;99.90;;;;;;10177583;28;20050;-68
2021/01/26 04:05:21;;;;;;;14.48;5.90;;;1.20;99.90;;;;;;10171712;28;20051;-67
2021/01/26 04:10:26;;;;;;;16.45;7.00;;;1.10;99.90;;;;;;10211963;28;20090;-67
2021/01/26 04:15:53;;;;;;;22.02;7.30;;;1.10;99.90;;;;;;10204215;28;20142;-67
2021/01/26 04:20:56;;;;;;;23.30;7.82;;;1.00;99.90;;;;;;10215468;28;20133;-67
2021/01/26 04:26:25;;;;;;;16.05;7.68;;;0.90;99.90;;;;;;10208198;28;20063;-68
2021/01/26 04:31:26;;;;;;;18.48;7.32;;;0.90;99.90;;;;;;10210980;28;20046;-68
2021/01/26 04:36:28;;;;;;;19.42;7.90;;;1.00;99.90;;;;;;10212889;28;20062;-67
2021/01/26 04:41:50;;;;;;;18.77;7.35;;;1.00;99.90;;;;;;10211634;28;20137;-67
2021/01/26 04:47:06;;;;;;;16.08;6.60;;;1.90;99.90;;;;;;10228689;28;20493;-68
2021/01/26 04:52:34;;;;;;;14.30;6.35;;;1.20;99.90;;;;;;10165740;28;20048;-68
2021/01/26 04:58:06;;;;;;;15.23;5.78;;;1.20;99.90;;;;;;10161098;28;20099;-67
2021/01/26 05:03:26;;;;;;;16.02;5.90;;;1.30;99.90;;;;;;10174445;28;20047;-68
2021/01/26 05:08:37;;;;;;;19.38;5.97;;;1.30;99.90;;;;;;10228790;28;20105;-68
2021/01/26 05:13:49;;;;;;;14.45;5.25;;;1.30;99.90;;;;;;10226787;28;20110;-68
2021/01/26 05:18:57;;;;;;;15.93;5.20;;;1.50;99.90;;;;;;10217218;28;20054;-67
2021/01/26 05:24:41;;;;;;;16.98;6.05;;;1.50;99.90;;;;;;10217697;28;20850;-67
2021/01/26 05:29:42;;;;;;;16.70;6.72;;;1.50;99.90;;;;;;10141030;28;20051;-67
2021/01/26 05:34:44;;;;;;;13.43;6.13;;;1.40;99.90;;;;;;10222277;28;20048;-67
2021/01/26 05:39:57;;;;;;;16.67;7.07;;;1.30;99.90;;;;;;10219185;28;20493;-67
2021/01/26 05:45:05;;;;;;;14.80;7.10;;;1.40;99.90;;;;;;10227125;28;20513;-67
2021/01/26 05:50:27;;;;;;;13.90;5.88;;;1.50;99.90;;;;;;10202375;28;20043;-67
2021/01/26 05:55:28;;;;;;;16.10;5.97;;;1.60;99.90;;;;;;10224199;28;20051;-67
2021/01/26 06:00:30;;;;;;;15.07;6.00;;;1.70;99.90;;;;;;10217825;28;20051;-67
2021/01/26 06:05:32;;;;;;;13.27;5.07;;;1.80;99.90;;;;;;10218641;28;20106;-67
2021/01/26 06:10:34;;;;;;;10.30;5.22;;;1.80;99.90;;;;;;10218135;28;20142;-67
2021/01/26 06:15:38;;;;;;;10.40;5.07;;;1.90;99.90;;;;;;10216306;28;20553;-67
2021/01/26 06:20:41;;;;;;;16.02;5.90;;;1.90;99.90;;;;;;10229906;28;20039;-67
2021/01/26 06:25:46;;;;;;;12.48;4.95;;;1.90;99.90;;;;;;10215345;28;20062;-67
2021/01/26 06:31:13;;;;;;;15.05;6.50;;;1.80;99.90;;;;;;10227316;28;20453;-67
2021/01/26 06:36:37;;;;;;;15.27;4.93;;;1.70;99.90;;;;;;10168452;28;20052;-67
2021/01/26 06:41:59;;;;;;;10.55;5.22;;;1.60;99.90;;;;;;10175382;28;20793;-67
2021/01/26 06:47:37;;;;;;;13.98;5.00;;;1.70;99.90;;;;;;10214650;28;20050;-67
2021/01/26 06:52:58;;;;;;;11.60;5.70;;;1.80;99.90;;;;;;10165340;28;20055;-67
2021/01/26 06:58:08;;;;;;;9.45;5.07;;;1.80;99.90;;;;;;10223320;28;20516;-67
2021/01/26 07:03:47;;;;;;;12.27;4.30;;;1.80;99.90;;;;;;10229630;28;20062;-67
2021/01/26 07:08:48;;;;;;;;;;;1.80;99.90;;;;;;10186367;28;20060;-62
2021/01/26 07:13:57;;;;;;;11.60;5.13;;;1.90;99.90;;;;;;10220341;28;20359;-61
2021/01/26 07:19:24;;;;;;;7.55;4.45;;;1.90;99.90;;;;;;10239336;28;20051;-61
2021/01/26 07:25:01;;;;;;;10.68;4.97;;;1.90;99.90;;;;;;10232907;28;20102;-61
2021/01/26 07:30:18;;;;;;;7.35;3.67;;;1.90;99.90;;;;;;10162896;28;20558;-61
2021/01/26 07:35:22;;;;;;;7.28;3.08;;;2.20;99.90;;;;;;10217662;28;20059;-62
2021/01/26 07:40:51;;;;;;;9.63;2.72;;;2.30;99.90;;;;;;10226089;28;20042;-61
2021/01/26 07:46:05;;;;;;;7.63;3.40;;;2.40;99.90;;;;;;10232013;28;20039;-62
2021/01/26 07:51:13;;;;;;;8.50;2.50;;;2.40;99.90;;;;;;10232859;28;20433;-62
2021/01/26 07:56:34;;;;;;;4.90;2.58;;;2.50;99.90;;;;;;10231020;28;20114;-61
2021/01/26 08:01:44;;;;;;;16.02;3.60;;;2.60;99.90;;;;;;10186129;28;20051;-61
2021/01/26 08:07:00;;;;;;;5.85;2.50;;;2.70;99.90;;;;;;10230216;28;20047;-61
2021/01/26 08:12:05;;;;;;;7.68;3.25;;;2.60;99.90;;;;;;10238035;28;20050;-61
2021/01/26 08:17:11;;;;;;;4.20;2.38;;;2.70;99.90;;;;;;10240273;28;20039;-61
2021/01/26 08:22:33;;;;;;;4.63;2.83;;;2.70;99.90;;;;;;10234025;28;20055;-63
2021/01/26 08:27:38;;;;;;;5.85;2.00;;;2.90;99.90;;;;;;10161345;28;20118;-63
2021/01/26 08:32:39;;;;;;;5.93;1.90;;;2.80;99.90;;;;;;10245641;28;20058;-64
2021/01/26 08:37:43;;;;;;;2.75;1.38;;;2.80;99.90;;;;;;10237078;28;20083;-64
2021/01/26 08:43:04;;;;;;;7.93;2.63;;;2.80;99.90;;;;;;10237780;28;20078;-63
2021/01/26 08:48:27;;;;;;;4.25;1.35;;;2.80;99.90;;;;;;10190367;28;20473;-62
2021/01/26 08:53:28;;;;;;;5.07;2.05;;;2.80;99.90;;;;;;10224401;28;20070;-62
2021/01/26 08:59:00;;;;;;;2.47;1.27;;;2.90;99.90;;;;;;10224739;28;20043;-62
2021/01/26 09:04:14;;;;;;;5.10;1.75;;;2.90;99.90;;;;;;10219127;28;20043;-62
2021/01/26 09:09:18;;;;;;;4.70;1.73;;;3.00;99.90;;;;;;10240003;28;20114;-62
2021/01/26 09:14:38;;;;;;;5.78;1.80;;;3.00;99.90;;;;;;10231633;28;20207;-62
2021/01/26 09:19:44;;;;;;;5.40;1.10;;;3.00;99.90;;;;;;10180823;28;20062;-63
2021/01/26 09:24:48;;;;;;;2.47;0.97;;;3.00;99.90;;;;;;10225108;28;20070;-63
2021/01/26 09:30:08;;;;;;;4.45;1.50;;;3.10;99.90;;;;;;10238025;28;20058;-63
2021/01/26 09:35:26;;;;;;;8.48;1.73;;;3.20;99.90;;;;;;10147525;28;20043;-62
2021/01/26 09:40:28;;;;;;;6.22;1.27;;;3.20;99.90;;;;;;10237055;28;20054;-63
2021/01/26 09:45:29;;;;;;;4.78;1.02;;;3.30;99.90;;;;;;10238989;28;20078;-62
2021/01/26 09:50:31;;;;;;;1.98;1.23;;;3.30;99.90;;;;;;10242037;28;20070;-62
2021/01/26 09:55:35;;;;;;;2.92;0.80;;;3.40;99.90;;;;;;10230700;28;20441;-63
2021/01/26 10:00:37;;;;;;;4.13;1.10;;;3.30;99.90;;;;;;10250833;28;20053;-62
2021/01/26 10:05:38;;;;;;;6.43;1.23;;;3.30;99.90;;;;;;10230142;28;20482;-62
2021/01/26 10:10:40;;;;;;;10.43;2.83;;;3.40;99.90;;;;;;10226195;28;20059;-63
2021/01/26 10:15:42;;;;;;;7.82;1.25;;;3.30;99.90;;;;;;10218265;28;20047;-62
2021/01/26 10:20:47;;;;;;;4.95;1.05;;;3.30;99.90;;;;;;10236939;28;20156;-62
2021/01/26 10:25:49;;;;;;;4.80;1.23;;;3.40;99.90;;;;;;10236142;28;20062;-62
2021/01/26 10:30:51;;;;;;;5.13;0.75;;;3.60;99.90;;;;;;10240377;28;20054;-63
2021/01/26 10:35:53;;;;;;;5.10;1.00;;;3.70;99.90;;;;;;10238495;28;20051;-62
2021/01/26 10:41:32;;;;;;;6.60;0.90;;;3.60;99.90;;;;;;10237999;28;20062;-62
2021/01/26 10:46:37;;;;;;;3.58;0.93;;;3.60;99.90;;;;;;10177364;28;20070;-63
2021/01/26 10:51:41;;;;;;;3.97;0.80;;;3.60;99.90;;;;;;10246115;28;20390;-62
2021/01/26 10:56:43;;;;;;;3.90;0.80;;;3.50;99.90;;;;;;10221342;28;20105;-63
2021/01/26 11:01:45;;;;;;;3.45;1.05;;;3.70;99.90;;;;;;10239063;28;20059;-64
2021/01/26 11:06:47;;;;;;;1.17;0.60;;;3.90;99.90;;;;;;10231672;28;20080;-64
2021/01/26 11:11:48;;;;;;;3.80;0.82;;;3.90;99.90;;;;;;10229796;28;20108;-62
2021/01/26 11:16:49;;;;;;;3.90;0.82;;;3.80;99.90;;;;;;10232330;28;20462;-62
2021/01/26 11:21:51;;;;;;;2.40;0.90;;;3.80;99.90;;;;;;10237545;28;20050;-62
2021/01/26 11:26:52;;;;;;;3.72;0.70;;;4.10;99.90;;;;;;10225775;28;20061;-62
2021/01/26 11:31:53;;;;;;;2.42;0.90;;;4.30;99.90;;;;;;10241410;28;20046;-61
2021/01/26 11:36:55;;;;;;;2.55;0.60;;;4.10;99.90;;;;;;10229626;28;20129;-61
2021/01/26 11:41:56;;;;;;;4.05;0.90;;;4.00;99.90;;;;;;10219729;28;20059;-62
2021/01/26 11:46:57;;;;;;;3.50;0.90;;;4.30;99.90;;;;;;10242384;28;20637;-61
2021/01/26 11:51:58;;;;;;;4.50;1.10;;;4.30;99.90;;;;;;10234236;28;20055;-62
2021/01/26 11:57:00;;;;;;;3.40;1.10;;;4.40;99.90;;;;;;10236492;28;20047;-62
2021/01/26 12:02:01;;;;;;;4.18;1.95;;;4.50;99.90;;;;;;10240397;28;20050;-61
2021/01/26 12:07:03;;;;;;;3.15;0.77;;;4.50;99.90;;;;;;10231732;28;20624;-61
2021/01/26 12:12:04;;;;;;;6.55;1.17;;;4.50;99.90;;;;;;10235695;28;20053;-62
2021/01/26 12:17:05;;;;;;;4.65;1.05;;;4.30;99.90;;;;;;10242500;28;20051;-62
2021/01/26 12:22:07;;;;;;;2.55;0.77;;;4.30;99.90;;;;;;10232659;28;20583;-62
2021/01/26 12:27:09;;;;;;;2.65;0.55;;;4.40;99.90;;;;;;10226994;28;20051;-62
2021/01/26 12:32:10;;;;;;;2.85;1.13;;;4.40;99.90;;;;;;10232902;28;20070;-62
2021/01/26 12:37:12;;;;;;;3.58;1.10;;;4.30;99.90;;;;;;10223197;28;20043;-62
2021/01/26 12:42:13;;;;;;;3.03;0.73;;;4.40;99.90;;;;;;10224683;28;20054;-63
2021/01/26 12:47:14;;;;;;;3.45;1.00;;;4.50;99.90;;;;;;10254923;28;20051;-61
2021/01/26 12:52:16;;;;;;;6.13;0.90;;;4.60;99.90;;;;;;10242635;28;20050;-61
2021/01/26 12:57:17;;;;;;;4.55;1.00;;;4.70;99.90;;;;;;10225826;28;20430;-61
2021/01/26 13:02:22;;;;;;;2.42;0.75;;;4.70;99.90;;;;;;10236880;28;20050;-62
2021/01/26 13:07:23;;;;;;;4.70;0.68;;;4.60;99.90;;;;;;10234626;28;20038;-61
2021/01/26 13:12:25;;;;;;;1.58;0.82;;;4.40;99.90;;;;;;10245615;28;20051;-61
2021/01/26 13:17:26;;;;;;;5.05;0.70;;;4.40;99.90;;;;;;10230476;28;20047;-61
2021/01/26 13:22:30;;;;;;;6.95;0.88;;;4.40;99.90;;;;;;10237273;28;20129;-60
2021/01/26 13:27:31;;;;;;;2.60;1.00;;;4.30;99.90;;;;;;10232734;28;20043;-63
2021/01/26 13:32:33;;;;;;;3.90;1.35;;;4.20;99.90;;;;;;10223365;28;20118;-64
2021/01/26 13:37:35;;;;;;;3.75;0.80;;;4.20;99.90;;;;;;10225683;28;20051;-63
2021/01/26 13:42:36;;;;;;;2.63;0.70;;;4.20;99.90;;;;;;10239214;28;20383;-63
2021/01/26 13:47:37;;;;;;;5.60;1.05;;;4.20;99.90;;;;;;10239356;28;20059;-62
2021/01/26 13:52:39;;;;;;;7.97;1.13;;;3.70;99.90;;;;;;10241310;28;20064;-61
2021/01/26 13:57:40;;;;;;;2.20;0.88;;;4.10;99.90;;;;;;10233400;28;20055;-62
2021/01/26 14:02:41;;;;;;;3.60;0.70;;;4.10;99.90;;;;;;10245499;28;20062;-62
2021/01/26 14:07:43;;;;;;;4.10;0.80;;;4.20;99.90;;;;;;10238539;28;20047;-62
2021/01/26 14:12:44;;;;;;;4.50;1.80;;;4.10;99.90;;;;;;10212179;28;20059;-62
2021/01/26 14:17:45;;;;;;;7.05;1.88;;;4.00;99.90;;;;;;10194058;28;20062;-63
2021/01/26 14:22:47;;;;;;;4.25;1.20;;;4.10;99.90;;;;;;10169715;28;20050;-63
2021/01/26 14:27:48;;;;;;;3.50;1.13;;;4.20;99.90;;;;;;10153712;28;20080;-62
2021/01/26 14:32:50;;;;;;;4.18;1.52;;;4.20;99.90;;;;;;10191837;28;20055;-61
2021/01/26 14:37:51;;;;;;;2.97;0.90;;;4.10;99.90;;;;;;10202121;28;20055;-62
2021/01/26 14:42:54;;;;;;;3.33;1.35;;;4.20;99.90;;;;;;10201002;28;20055;-62
2021/01/26 14:47:55;;;;;;;5.38;1.52;;;4.00;99.90;;;;;;10197468;28;20111;-62
2021/01/26 14:52:56;;;;;;;7.40;1.58;;;4.00;99.90;;;;;;10196569;28;20067;-62
2021/01/26 14:57:58;;;;;;;4.55;1.10;;;3.90;99.90;;;;;;10186763;28;20080;-63
2021/01/26 15:02:59;;;;;;;1.77;0.90;;;3.90;99.90;;;;;;10199504;28;20051;-63
2021/01/26 15:08:00;;;;;;;4.43;1.80;;;3.80;99.90;;;;;;10196068;28;20071;-62
2021/01/26 15:13:02;;;;;;;4.75;1.10;;;3.70;99.90;;;;;;10220362;28;20054;-61
2021/01/26 15:18:04;;;;;;;2.90;1.77;;;3.70;99.90;;;;;;10232545;28;20055;-63
2021/01/26 15:23:06;;;;;;;4.65;1.65;;;3.60;99.90;;;;;;10234329;28;20066;-63
2021/01/26 15:28:07;;;;;;;3.45;1.77;;;3.60;99.90;;;;;;10237689;28;20055;-62
2021/01/26 15:33:08;;;;;;;1.90;1.45;;;3.60;99.90;;;;;;10234440;28;20050;-64
2021/01/26 15:38:09;;;;;;;7.68;2.40;;;3.60;99.90;;;;;;10233441;28;20150;-63
2021/01/26 15:43:11;;;;;;;2.65;1.30;;;3.60;99.90;;;;;;10214409;28;20055;-63
2021/01/26 15:48:12;;;;;;;2.95;1.48;;;3.60;99.90;;;;;;10232352;28;20067;-64
2021/01/26 15:53:13;;;;;;;2.65;1.63;;;3.70;99.90;;;;;;10235683;28;20478;-64
2021/01/26 15:58:14;;;;;;;2.35;1.67;;;3.70;99.90;;;;;;10238116;28;20948;-64
2021/01/26 16:03:16;;;;;;;2.97;1.17;;;3.60;99.90;;;;;;10236443;28;20110;-64
2021/01/26 16:08:17;;;;;;;3.85;1.45;;;3.60;99.90;;;;;;10240742;28;21586;-63
2021/01/26 16:13:18;;;;;;;5.45;1.73;;;3.50;99.90;;;;;;10237272;28;20456;-63
2021/01/26 16:18:20;;;;;;;7.85;2.83;;;3.40;99.90;;;;;;10238204;28;20074;-63
2021/01/26 16:23:21;;;;;;;8.60;1.98;;;3.30;99.90;;;;;;10228168;28;20063;-63
2021/01/26 16:28:23;;;;;;;4.07;2.63;;;3.10;99.90;;;;;;10233172;28;20050;-63
2021/01/26 16:33:24;;;;;;;3.60;2.33;;;3.10;99.90;;;;;;10241275;28;20105;-62
2021/01/26 16:38:26;;;;;;;8.27;2.78;;;3.10;99.90;;;;;;10233986;28;20565;-64
2021/01/26 16:43:27;;;;;;;3.67;1.30;;;3.10;99.90;;;;;;10232466;28;20058;-64
2021/01/26 16:48:30;;;;;;;11.27;3.05;;;3.10;99.90;;;;;;10244112;28;20039;-65
2021/01/26 16:53:32;;;;;;;2.33;1.25;;;3.10;99.90;;;;;;10243766;28;20046;-66
2021/01/26 16:58:33;;;;;;;2.95;1.23;;;3.00;99.90;;;;;;10242248;28;20051;-66
2021/01/26 17:03:34;;;;;;;2.78;1.65;;;2.90;99.90;;;;;;10235971;28;20054;-66
2021/01/26 17:08:36;;;;;;;5.97;1.02;;;2.80;99.90;;;;;;10244676;28;20047;-67
2021/01/26 17:13:37;;;;;;;4.47;1.60;;;2.80;99.90;;;;;;10242281;28;20456;-66
2021/01/26 17:18:41;;;;;;;4.97;1.63;;;2.70;99.90;;;;;;10243037;28;20545;-66
2021/01/26 17:23:43;;;;;;;4.70;1.42;;;2.70;99.90;;;;;;10242486;28;20345;-65
2021/01/26 17:28:44;;;;;;;3.38;1.48;;;2.70;99.90;;;;;;10243876;28;20772;-66
2021/01/26 17:33:45;;;;;;;5.85;1.85;;;2.80;99.90;;;;;;10229856;28;20055;-66
2021/01/26 17:38:46;;;;;;;2.92;1.05;;;2.70;99.90;;;;;;10250845;28;20051;-67
2021/01/26 17:43:47;;;;;;;4.70;1.63;;;2.70;99.90;;;;;;10231285;28;20055;-68
2021/01/26 17:48:49;;;;;;;5.65;2.00;;;2.70;99.90;;;;;;10243085;28;20461;-68
2021/01/26 17:53:50;;;;;;;6.50;2.47;;;2.80;99.90;;;;;;10233832;28;20371;-69
2021/01/26 17:58:51;;;;;;;3.63;2.10;;;2.70;99.90;;;;;;10241837;28;20047;-68
2021/01/26 18:03:53;;;;;;;8.38;3.00;;;2.70;99.90;;;;;;10236303;28;20131;-67
2021/01/26 18:08:54;;;;;;;5.97;3.80;;;2.40;99.90;;;;;;10250677;28;20580;-69
2021/01/26 18:13:56;;;;;;;12.32;3.00;;;2.30;99.90;;;;;;10216736;28;20051;-68
2021/01/26 18:18:57;;;;;;;8.20;3.67;;;2.30;99.90;;;;;;10220845;28;20402;-68
2021/01/26 18:23:58;;;;;;;10.65;2.90;;;2.30;99.90;;;;;;10216762;28;20470;-68
2021/01/26 18:28:59;;;;;;;10.25;2.80;;;2.40;99.90;;;;;;10215770;28;20087;-68
2021/01/26 18:34:01;;;;;;;7.63;4.10;;;2.50;99.90;;;;;;10205184;28;20062;-68
2021/01/26 18:39:05;;;;;;;13.93;3.38;;;2.50;99.90;;;;;;10216056;28;20035;-68
2021/01/26 18:44:08;;;;;;;8.70;2.83;;;2.60;99.90;;;;;;10217468;28;20055;-67
2021/01/26 18:49:09;;;;;;;7.97;3.30;;;2.60;99.90;;;;;;10226402;28;20047;-67
2021/01/26 18:54:10;;;;;;;13.43;4.30;;;2.70;99.90;;;;;;10212737;28;20750;-67
2021/01/26 18:59:13;;;;;;;4.55;2.30;;;2.70;99.90;;;;;;10214276;28;20481;-67
2021/01/26 19:04:15;;;;;;;2.95;1.50;;;2.70;99.90;;;;;;10218145;28;21658;-67
2021/01/26 19:09:16;;;;;;;3.70;1.42;;;2.70;99.90;;;;;;10215835;28;21646;-66
2021/01/26 19:14:17;;;;;;;4.28;1.10;;;2.80;99.90;;;;;;10219474;28;20078;-66
2021/01/26 19:19:18;;;;;;;7.63;2.08;;;2.90;99.90;;;;;;10242043;28;20054;-67
2021/01/26 19:24:20;;;;;;;4.70;1.10;;;2.90;99.90;;;;;;10230097;28;20062;-68
2021/01/26 19:29:22;;;;;;;2.30;0.75;;;2.90;99.90;;;;;;10243531;28;20102;-67
2021/01/26 19:34:25;;;;;;;6.60;1.67;;;2.90;99.90;;;;;;10231626;28;20050;-68
2021/01/26 19:39:27;;;;;;;2.17;1.10;;;2.80;99.90;;;;;;10247808;28;20050;-67
2021/01/26 19:44:28;;;;;;;8.00;2.78;;;2.70;99.90;;;;;;10231636;28;20106;-68
2021/01/26 19:49:30;;;;;;;13.85;6.03;;;2.50;99.90;;;;;;10239378;28;20058;-69
2021/01/26 19:54:31;;;;;;;10.50;4.28;;;2.50;99.90;;;;;;10236222;28;20461;-68
2021/01/26 19:59:32;;;;;;;5.55;2.30;;;2.30;99.90;;;;;;10235299;28;20050;-68
2021/01/26 20:04:33;;;;;;;6.13;2.67;;;2.30;99.90;;;;;;10231158;28;20055;-68
2021/01/26 20:09:35;;;;;;;6.63;2.70;;;2.20;99.90;;;;;;10240992;28;20065;-67
2021/01/26 20:14:36;;;;;;;4.68;1.92;;;2.10;99.90;;;;;;10175747;28;20090;-65
2021/01/26 20:19:37;;;;;;;3.90;1.70;;;2.10;99.90;;;;;;10175691;28;20474;-67
2021/01/26 20:24:39;;;;;;;4.18;1.80;;;2.10;99.90;;;;;;10156877;28;20062;-66
2021/01/26 20:29:40;;;;;;;3.72;1.60;;;2.00;99.90;;;;;;10163687;28;20375;-67
2021/01/26 20:34:41;;;;;;;7.25;2.83;;;1.90;99.90;;;;;;10181455;28;20044;-67
2021/01/26 20:39:43;;;;;;;5.70;2.50;;;1.90;99.90;;;;;;10168623;28;20130;-67
2021/01/26 20:44:44;;;;;;;7.28;2.95;;;1.90;99.90;;;;;;10182985;28;20055;-66
2021/01/26 20:49:45;;;;;;;4.72;2.15;;;1.80;99.90;;;;;;10159896;28;20067;-67
2021/01/26 20:54:47;;;;;;;9.80;1.98;;;1.90;99.90;;;;;;10136011;28;20055;-65
2021/01/26 20:59:48;;;;;;;3.22;1.80;;;1.90;99.90;;;;;;10167233;28;20059;-68
2021/01/26 21:04:50;;;;;;;4.68;1.73;;;1.90;99.90;;;;;;10165125;28;20056;-68
2021/01/26 21:09:51;;;;;;;5.00;2.53;;;1.90;99.90;;;;;;10151700;28;20056;-68
2021/01/26 21:14:52;;;;;;;4.15;2.67;;;1.80;99.90;;;;;;10178940;28;20059;-68
2021/01/26 21:19:53;;;;;;;7.88;2.80;;;1.80;99.90;;;;;;10160474;28;20075;-67
2021/01/26 21:24:54;;;;;;;4.82;2.30;;;1.80;99.90;;;;;;10183035;28;20126;-67
2021/01/26 21:29:55;;;;;;;5.85;2.05;;;1.70;99.90;;;;;;10179954;28;20048;-68
2021/01/26 21:34:57;;;;;;;4.78;2.28;;;1.60;99.90;;;;;;10179022;28;20483;-66
2021/01/26 21:39:58;;;;;;;7.85;1.90;;;1.60;99.90;;;;;;10177374;28;20048;-66
2021/01/26 21:45:00;;;;;;;5.50;2.75;;;1.60;99.90;;;;;;10174211;28;20051;-66
2021/01/26 21:50:01;;;;;;;7.85;3.50;;;1.60;99.90;;;;;;10180156;28;20077;-67
2021/01/26 21:55:03;;;;;;;6.80;2.88;;;1.60;99.90;;;;;;10180455;28;20066;-68
2021/01/26 22:00:07;;;;;;;5.68;2.63;;;1.50;99.90;;;;;;10175760;28;20577;-68
2021/01/26 22:05:09;;;;;;;6.15;2.78;;;1.50;99.90;;;;;;10180224;28;20048;-67
2021/01/26 22:10:11;;;;;;;3.88;2.00;;;1.50;99.90;;;;;;10179015;28;20043;-68
2021/01/26 22:15:17;;;;;;;8.05;3.20;;;1.50;99.90;;;;;;10184687;28;20110;-68
2021/01/26 22:20:21;;;;;;;4.00;2.20;;;1.40;99.90;;;;;;10166948;28;20731;-68
2021/01/26 22:25:29;;;;;;;8.98;2.47;;;1.40;99.90;;;;;;10163753;28;20043;-68
2021/01/26 22:30:31;;;;;;;6.43;3.20;;;1.40;99.90;;;;;;10175317;28;20044;-68
2021/01/26 22:35:32;;;;;;;5.28;2.70;;;1.40;99.90;;;;;;10146458;28;20058;-67
2021/01/26 22:40:38;;;;;;;5.40;2.55;;;1.40;99.90;;;;;;10180196;28;20502;-66
2021/01/26 22:45:40;;;;;;;5.95;3.20;;;1.40;99.90;;;;;;10163617;28;20368;-66
2021/01/26 22:50:41;;;;;;;8.18;3.35;;;1.30;99.90;;;;;;10177463;28;20062;-66
2021/01/26 22:55:43;;;;;;;9.48;3.55;;;1.40;99.90;;;;;;10183566;28;20052;-66
2021/01/26 23:00:46;;;;;;;5.40;3.50;;;1.30;99.90;;;;;;10175212;28;20051;-66
2021/01/26 23:05:49;;;;;;;6.72;3.30;;;1.30;99.90;;;;;;10148535;28;20051;-67
2021/01/26 23:10:52;;;;;;;8.13;3.70;;;1.40;99.90;;;;;;10179031;28;20059;-67
2021/01/26 23:15:55;;;;;;;7.57;4.03;;;1.40;99.90;;;;;;10183989;28;20629;-67
2021/01/26 23:20:57;;;;;;;8.38;4.00;;;1.40;99.90;;;;;;10173893;28;20086;-66
2021/01/26 23:25:59;;;;;;;7.05;4.07;;;1.40;99.90;;;;;;10175475;28;20048;-66
2021/01/26 23:31:00;;;;;;;6.75;3.72;;;1.40;99.90;;;;;;10178631;28;20051;-66
2021/01/26 23:36:02;;;;;;;10.75;3.72;;;1.40;99.90;;;;;;10181389;28;20075;-66
2021/01/26 23:41:03;;;;;;;5.45;3.70;;;1.30;99.90;;;;;;10179737;28;20067;-66
2021/01/26 23:46:05;;;;;;;7.30;4.55;;;1.20;99.90;;;;;;10183019;28;20106;-66
2021/01/26 23:51:07;;;;;;;12.50;4.40;;;1.20;99.90;;;;;;10186651;28;20075;-66
2021/01/26 23:56:08;;;;;;;9.40;3.67;;;1.20;99.90;;;;;;10191278;28;20845;-66
